Time;durP1;ratioP1;P1;durP2;ratioP2;P2;SDS_P1;SDS_P2;PMS_P1;PMS_P2;Temp;Humidity;BMP_temperature;BMP_pressure;BME280_temperature;BME280_humidity;BME280_pressure;Samples;Min_cycle;Max_cycle;Signal;HPM_P1;HPM_P2
2023/07/19 00:00:58;;;;;;;;;;;22.90;55.50;;;19.01;100.00;95387.66;5012988;28;19932;-45
2023/07/19 00:03:25;;;;;;;;;;;22.80;55.50;;;19.00;100.00;95391.47;5014007;28;19916;-44
2023/07/19 00:05:51;;;;;;;;;;;22.80;55.60;;;18.97;100.00;95384.00;5024624;28;19913;-43
2023/07/19 00:08:16;;;;;;;;;;;22.80;55.80;;;18.94;100.00;95385.44;5006919;28;20363;-43
2023/07/19 00:10:42;;;;;;;;;;;22.70;55.80;;;18.90;100.00;95382.59;5012849;28;20011;-47
2023/07/19 00:13:08;;;;;;;;;;;22.70;55.80;;;18.89;100.00;95386.41;5017492;28;19909;-44
2023/07/19 00:15:34;;;;;;;;;;;22.70;55.90;;;18.85;100.00;95382.75;5013506;28;19947;-43
2023/07/19 00:17:59;;;;;;;;;;;22.70;56.00;;;18.79;100.00;95386.75;5021141;28;19951;-45
2023/07/19 00:20:25;;;;;;;;;;;22.70;56.00;;;18.70;100.00;95380.53;5013893;28;20001;-45
2023/07/19 00:22:51;;;;;;;;;;;22.70;56.10;;;18.71;100.00;95380.25;5013683;28;20020;-48
2023/07/19 00:25:17;;;;;;;;;;;22.60;56.20;;;18.68;100.00;95380.88;5018867;28;19928;-44
2023/07/19 00:27:43;;;;;;;;;;;22.60;56.20;;;18.66;100.00;95382.31;5033466;28;20000;-43
2023/07/19 00:30:10;;;;;;;;;;;22.50;56.30;;;18.67;100.00;95381.97;5027578;28;19909;-44
2023/07/19 00:32:35;;;;;;;;;;;22.50;56.40;;;18.66;100.00;95387.72;5033211;28;19915;-44
2023/07/19 00:35:01;;;;;;;;;;;22.50;56.50;;;18.66;100.00;95387.72;5030773;28;20007;-44
2023/07/19 00:37:27;;;;;;;;;;;22.50;56.50;;;18.62;100.00;95398.34;5025967;28;19954;-47
2023/07/19 00:39:53;;;;;;;;;;;22.50;56.60;;;18.57;100.00;95395.03;5032721;28;19921;-44
2023/07/19 00:42:18;;;;;;;;;;;22.40;56.60;;;18.57;100.00;95398.50;5019168;28;19909;-43
2023/07/19 00:44:44;;;;;;;;;;;22.40;56.70;;;18.55;100.00;95397.22;5032954;28;20336;-45
2023/07/19 00:47:11;;;;;;;;;;;22.40;56.70;;;18.45;100.00;95401.84;5030247;28;19913;-44
2023/07/19 00:49:40;;;;;;;;;;;22.30;56.80;;;18.46;100.00;95406.16;5048095;28;19908;-43
2023/07/19 00:52:07;;;;;;;;;;;22.30;56.90;;;18.50;100.00;95407.09;5032486;28;19916;-43
2023/07/19 00:54:33;;;;;;;;;;;22.30;57.00;;;18.50;100.00;95407.09;5024099;28;20337;-44
2023/07/19 00:57:01;;;;;;;;;;;22.30;57.10;;;18.50;100.00;95409.78;5048086;28;19908;-45
2023/07/19 00:59:27;;;;;;;;;;;22.30;57.20;;;18.48;100.00;95419.28;5027562;28;19909;-44
2023/07/19 01:01:54;;;;;;;;;;;22.30;57.20;;;18.45;100.00;95414.53;5021423;28;19962;-44
2023/07/19 01:04:20;;;;;;;;;;;22.20;57.20;;;18.43;100.00;95416.78;5012517;28;19945;-47
2023/07/19 01:06:45;;;;;;;;;;;22.20;57.30;;;18.43;100.00;95406.78;5013062;28;20015;-45
2023/07/19 01:09:13;;;;;;;;;;;22.30;57.40;;;18.47;100.00;95418.50;5021865;28;19909;-46
2023/07/19 01:11:40;;;;;;;;;;;22.30;57.50;;;18.52;100.00;95420.25;5015898;28;19909;-44
2023/07/19 01:14:07;;;;;;;;;;;22.30;57.60;;;18.53;100.00;95413.75;5025957;28;20038;-47
2023/07/19 01:16:34;;;;;;;;;;;22.30;57.60;;;18.52;100.00;95414.88;5031797;28;19978;-44
2023/07/19 01:19:00;;;;;;;;;;;22.30;57.60;;;18.53;100.00;95407.56;5015508;28;19963;-47
2023/07/19 01:21:25;;;;;;;;;;;22.30;57.60;;;18.50;100.00;95409.78;5014869;28;19915;-44
2023/07/19 01:23:51;;;;;;;;;;;22.30;57.60;;;18.48;100.00;95405.81;5022503;28;19909;-44
2023/07/19 01:26:18;;;;;;;;;;;22.30;57.70;;;18.46;100.00;95406.16;5028498;28;19912;-43
2023/07/19 01:28:44;;;;;;;;;;;22.30;57.70;;;18.46;100.00;95402.66;5031447;28;19912;-46
2023/07/19 01:31:13;;;;;;;;;;;22.30;57.80;;;18.45;100.00;95401.06;5028080;28;19909;-47
2023/07/19 01:33:39;;;;;;;;;;;22.30;57.80;;;18.44;100.00;95400.25;5031164;28;19916;-44
2023/07/19 01:36:05;;;;;;;;;;;22.20;57.80;;;18.43;100.00;95397.91;5023975;28;19917;-43
2023/07/19 01:38:30;;;;;;;;;;;22.20;57.90;;;18.39;100.00;95396.94;5029496;28;20279;-46
2023/07/19 01:40:56;;;;;;;;;;;22.20;58.00;;;18.38;100.00;95398.06;5026832;28;20358;-47
2023/07/19 01:43:22;;;;;;;;;;;22.20;58.00;;;18.40;100.00;95403.94;5011383;28;19909;-44
2023/07/19 01:45:48;;;;;;;;;;;22.20;58.10;;;18.44;100.00;95399.47;5028094;28;19970;-44
2023/07/19 01:48:14;;;;;;;;;;;22.30;58.20;;;18.46;100.00;95408.06;5028976;28;20383;-47
2023/07/19 01:50:40;;;;;;;;;;;22.30;58.20;;;18.47;100.00;95402.31;5031134;28;20070;-46
2023/07/19 01:53:06;;;;;;;;;;;22.30;58.30;;;18.47;100.00;95404.22;5028155;28;20003;-46
2023/07/19 01:55:32;;;;;;;;;;;22.30;58.30;;;18.49;100.00;95405.50;5028007;28;20007;-45
2023/07/19 01:57:57;;;;;;;;;;;22.30;58.40;;;18.47;100.00;95401.53;5031186;28;19912;-46
2023/07/19 02:00:23;;;;;;;;;;;22.30;58.40;;;18.51;100.00;95402.47;5020783;28;19963;-44
2023/07/19 02:02:49;;;;;;;;;;;22.30;58.40;;;18.53;100.00;95397.56;5022483;28;20344;-44
2023/07/19 02:05:15;;;;;;;;;;;22.30;58.50;;;18.53;100.00;95386.78;5023155;28;19928;-43
2023/07/19 02:07:40;;;;;;;;;;;22.30;58.50;;;18.55;100.00;95397.22;5031028;28;20317;-43
2023/07/19 02:10:07;;;;;;;;;;;22.40;58.60;;;18.55;100.00;95400.75;5025290;28;19909;-44
2023/07/19 02:12:32;;;;;;;;;;;22.40;58.60;;;18.57;100.00;95403.91;5014802;28;19955;-44
2023/07/19 02:14:58;;;;;;;;;;;22.40;58.70;;;18.58;100.00;95399.28;5025661;28;19916;-48
2023/07/19 02:17:24;;;;;;;;;;;22.40;58.70;;;18.61;100.00;95410.22;5029795;28;19920;-45
2023/07/19 02:19:50;;;;;;;;;;;22.40;58.80;;;18.62;100.00;95419.13;5031216;28;19939;-45
2023/07/19 02:22:15;;;;;;;;;;;22.40;58.80;;;18.65;100.00;95419.28;5023007;28;20042;-45
2023/07/19 02:24:41;;;;;;;;;;;22.50;58.90;;;18.63;100.00;95412.63;5011210;28;19952;-48
2023/07/19 02:27:08;;;;;;;;;;;22.50;58.90;;;18.67;100.00;95414.34;5030935;28;20331;-48
2023/07/19 02:29:33;;;;;;;;;;;22.50;59.00;;;18.69;100.00;95411.34;5025448;28;20007;-43
2023/07/19 02:31:59;;;;;;;;;;;22.50;59.00;;;18.68;100.00;95404.38;5045846;28;19999;-43
2023/07/19 02:34:25;;;;;;;;;;;22.50;59.00;;;18.73;100.00;95409.63;5034500;28;19916;-44
2023/07/19 02:36:51;;;;;;;;;;;22.60;59.10;;;18.78;100.00;95409.47;5018662;28;19909;-47
2023/07/19 02:39:17;;;;;;;;;;;22.60;59.10;;;18.82;100.00;95409.59;5028278;28;19924;-46
2023/07/19 02:41:43;;;;;;;;;;;22.60;59.10;;;18.83;100.00;95406.56;5027575;28;19915;-44
2023/07/19 02:44:08;;;;;;;;;;;22.60;59.10;;;18.85;100.00;95409.75;5028882;28;19909;-44
2023/07/19 02:46:35;;;;;;;;;;;22.70;59.20;;;18.87;100.00;95409.44;5034270;28;20355;-45
2023/07/19 02:49:01;;;;;;;;;;;22.70;59.20;;;18.89;100.00;95412.59;5030925;28;19916;-45
2023/07/19 02:51:26;;;;;;;;;;;22.80;59.80;;;18.94;100.00;95409.72;5034151;28;20278;-48
2023/07/19 02:53:52;;;;;;;;;;;22.80;59.20;;;18.97;100.00;95409.09;5026715;28;20032;-43
2023/07/19 02:56:18;;;;;;;;;;;22.80;59.20;;;18.97;100.00;95413.69;5034204;28;19936;-45
2023/07/19 02:58:44;;;;;;;;;;;22.80;59.20;;;18.93;100.00;95408.16;5034011;28;19959;-45
2023/07/19 03:01:14;;;;;;;;;;;22.80;59.20;;;18.93;100.00;95410.84;5023429;28;20044;-46
2023/07/19 03:03:41;;;;;;;;;;;22.80;59.20;;;18.86;100.00;95410.53;5038879;28;19909;-46
2023/07/19 03:06:10;;;;;;;;;;;22.70;59.20;;;18.88;100.00;95422.59;5021004;28;19913;-46
2023/07/19 03:08:37;;;;;;;;;;;22.70;59.30;;;18.87;100.00;95423.72;5034184;28;19908;-49
2023/07/19 03:11:06;;;;;;;;;;;22.70;59.40;;;18.86;100.00;95437.53;5032516;28;19908;-48
2023/07/19 03:13:32;;;;;;;;;;;22.70;59.40;;;18.80;100.00;95428.00;5006142;28;19909;-46
2023/07/19 03:15:58;;;;;;;;;;;22.70;59.40;;;18.77;100.00;95425.94;5032315;28;19920;-43
2023/07/19 03:18:24;;;;;;;;;;;22.70;59.50;;;18.75;100.00;95425.50;5021470;28;19912;-45
2023/07/19 03:21:01;;;;;;;;;;;22.60;59.50;;;18.76;100.00;95427.06;5032280;28;19915;-44
2023/07/19 03:23:31;;;;;;;;;;;22.60;59.60;;;18.70;100.00;95424.50;5029563;28;20265;-46
2023/07/19 03:25:58;;;;;;;;;;;22.60;59.60;;;18.61;100.00;95431.03;5033567;28;19913;-45
2023/07/19 03:28:27;;;;;;;;;;;22.60;59.70;;;18.65;100.00;95432.78;5033414;28;19935;-44
2023/07/19 03:30:54;;;;;;;;;;;22.60;59.70;;;18.67;100.00;95435.94;5047201;28;19916;-43
2023/07/19 03:33:23;;;;;;;;;;;22.60;59.70;;;18.61;100.00;95439.91;5033549;28;19915;-45
2023/07/19 03:35:49;;;;;;;;;;;22.50;59.80;;;18.62;100.00;95436.09;5025810;28;19920;-46
2023/07/19 03:38:19;;;;;;;;;;;22.50;59.90;;;18.65;100.00;95438.16;5028785;28;19908;-45
2023/07/19 03:40:44;;;;;;;;;;;22.50;60.00;;;18.64;100.00;95443.88;5032883;28;19924;-46
2023/07/19 03:43:11;;;;;;;;;;;22.60;60.10;;;18.67;100.00;95435.13;5023660;28;19916;-44
2023/07/19 03:45:37;;;;;;;;;;;22.60;60.10;;;18.67;100.00;95435.94;5032177;28;19912;-45
2023/07/19 03:48:03;;;;;;;;;;;22.50;60.00;;;18.69;100.00;95435.63;5026901;28;19909;-43
2023/07/19 03:50:29;;;;;;;;;;;22.60;60.10;;;18.67;100.00;95444.03;5033018;28;19919;-45
2023/07/19 03:52:54;;;;;;;;;;;22.60;60.10;;;18.65;100.00;95445.47;5032504;28;19917;-44
2023/07/19 03:55:20;;;;;;;;;;;22.50;60.00;;;18.65;100.00;95450.88;5021570;28;19915;-46
2023/07/19 03:57:47;;;;;;;;;;;22.50;60.00;;;18.62;100.00;95448.81;5033116;28;19913;-48
2023/07/19 04:00:13;;;;;;;;;;;22.60;60.10;;;18.63;100.00;95456.56;5045888;28;19908;-47
2023/07/19 04:02:38;;;;;;;;;;;22.50;61.00;;;18.56;100.00;95461.66;5029968;28;20011;-44
2023/07/19 04:05:05;;;;;;;;;;;22.50;60.30;;;18.61;100.00;95458.78;5015798;28;20011;-44
2023/07/19 04:07:32;;;;;;;;;;;22.50;60.40;;;18.59;100.00;95454.84;5024135;28;27049;-44
2023/07/19 04:09:58;;;;;;;;;;;22.50;60.40;;;18.63;100.00;95456.56;5032514;28;19991;-44
2023/07/19 04:12:24;;;;;;;;;;;22.50;60.40;;;18.64;100.00;95452.75;5019642;28;19913;-44
2023/07/19 04:14:50;;;;;;;;;;;22.60;60.40;;;18.65;100.00;95456.25;5017680;28;20358;-47
2023/07/19 04:17:15;;;;;;;;;;;22.50;60.40;;;18.61;100.00;95461.47;5029053;28;19909;-44
2023/07/19 04:19:41;;;;;;;;;;;22.60;60.40;;;18.55;100.00;95459.25;5030892;28;20002;-44
2023/07/19 04:22:07;;;;;;;;;;;22.60;60.40;;;18.60;100.00;95465.28;5047047;28;20016;-43
2023/07/19 04:24:33;;;;;;;;;;;22.60;60.50;;;18.62;100.00;95460.38;5011057;28;20455;-44
2023/07/19 04:26:58;;;;;;;;;;;22.60;60.50;;;18.63;100.00;95463.88;5024382;28;20299;-45
2023/07/19 04:29:24;;;;;;;;;;;22.60;60.50;;;18.61;100.00;95461.47;5027529;28;19912;-44
2023/07/19 04:31:50;;;;;;;;;;;22.70;60.60;;;18.64;100.00;95465.44;5023500;28;19909;-45
2023/07/19 04:34:16;;;;;;;;;;;22.70;60.60;;;18.67;100.00;95467.50;5032238;28;19916;-45
2023/07/19 04:36:44;;;;;;;;;;;22.70;60.60;;;18.71;100.00;95460.38;5028622;28;19908;-45
2023/07/19 04:39:11;;;;;;;;;;;22.80;60.70;;;18.81;100.00;95464.69;5031532;28;19916;-43
2023/07/19 04:41:36;;;;;;;;;;;22.80;60.70;;;18.90;100.00;95470.88;4974738;22;1821426;-49
2023/07/19 04:44:02;;;;;;;;;;;22.90;60.70;;;18.99;100.00;95466.25;5017441;28;19959;-50
2023/07/19 04:46:28;;;;;;;;;;;23.00;60.80;;;19.06;100.00;95471.94;5015684;28;19912;-52
2023/07/19 04:48:54;;;;;;;;;;;23.00;60.70;;;19.15;100.00;95470.03;5018411;28;19909;-50
2023/07/19 04:51:20;;;;;;;;;;;23.20;60.70;;;19.27;100.00;95468.53;5021654;28;20329;-51
2023/07/19 04:53:45;;;;;;;;;;;23.20;60.60;;;19.29;100.00;95464.41;5011676;28;19909;-49
2023/07/19 04:56:11;;;;;;;;;;;23.30;60.50;;;19.41;100.00;95472.63;5012701;28;20007;-49
2023/07/19 04:58:37;;;;;;;;;;;23.40;60.60;;;19.64;100.00;95484.00;5012677;28;19916;-52
2023/07/19 05:01:08;;;;;;;;;;;23.60;60.50;;;19.93;100.00;95471.66;5011714;28;19915;-49
2023/07/19 05:03:35;;;;;;;;;;;23.80;60.40;;;20.10;100.00;95476.94;5012845;28;19913;-49
2023/07/19 05:06:01;;;;;;;;;;;24.00;60.30;;;20.22;100.00;95473.53;5011561;28;19924;-52
2023/07/19 05:08:27;;;;;;;;;;;24.10;60.20;;;20.17;100.00;95471.00;5009517;28;19909;-51
2023/07/19 05:10:53;;;;;;;;;;;24.20;60.10;;;20.25;100.00;95463.97;5000069;28;20383;-51
2023/07/19 05:13:19;;;;;;;;;;;24.30;60.00;;;20.42;100.00;95463.03;5010665;28;19958;-51
2023/07/19 05:15:44;;;;;;;;;;;24.50;59.80;;;20.63;100.00;95468.47;5012535;28;19916;-51
2023/07/19 05:18:10;;;;;;;;;;;24.70;59.80;;;20.87;100.00;95479.41;5011703;28;19909;-51
2023/07/19 05:20:36;;;;;;;;;;;24.90;59.70;;;21.18;100.00;95478.16;5012476;28;19913;-54
2023/07/19 05:23:01;;;;;;;;;;;25.20;59.60;;;21.55;100.00;95484.47;5012129;28;19962;-51
2023/07/19 05:25:28;;;;;;;;;;;25.50;60.10;;;21.82;100.00;95488.44;5011809;28;19915;-49
2023/07/19 05:27:53;;;;;;;;;;;25.80;59.40;;;22.02;98.47;95485.94;5012486;28;19909;-49
2023/07/19 05:30:19;;;;;;;;;;;26.10;59.20;;;22.23;96.04;95486.66;5022504;28;20329;-51
2023/07/19 05:32:45;;;;;;;;;;;26.30;58.90;;;22.36;92.53;95495.56;5013963;28;19909;-51
2023/07/19 05:35:11;;;;;;;;;;;26.60;58.80;;;22.43;91.47;95497.69;5011541;28;19913;-52
2023/07/19 05:37:36;;;;;;;;;;;26.70;58.50;;;22.59;90.22;95504.78;5007677;28;19913;-52
2023/07/19 05:40:04;;;;;;;;;;;27.00;58.20;;;22.83;89.40;95509.34;5012294;28;19995;-50
2023/07/19 05:42:30;;;;;;;;;;;27.30;58.00;;;23.11;88.02;95511.31;5009633;28;19917;-54
2023/07/19 05:44:56;;;;;;;;;;;27.50;57.80;;;23.25;85.42;95513.59;5009390;28;19966;-50
2023/07/19 05:47:22;;;;;;;;;;;27.70;57.60;;;23.27;84.43;95512.13;5010667;28;20058;-52
2023/07/19 05:49:47;;;;;;;;;;;27.90;57.30;;;23.29;85.32;95504.44;5012920;28;20443;-52
2023/07/19 05:52:13;;;;;;;;;;;27.90;57.00;;;23.47;83.17;95509.53;5010900;28;19925;-51
2023/07/19 05:54:39;;;;;;;;;;;28.10;56.80;;;23.61;81.45;95509.91;5012222;28;19913;-51
2023/07/19 05:57:05;;;;;;;;;;;28.30;56.50;;;23.82;79.37;95517.84;5011982;28;19909;-53
2023/07/19 05:59:30;;;;;;;;;;;28.50;56.30;;;24.00;78.71;95510.09;5011097;28;19913;-53
2023/07/19 06:01:56;;;;;;;;;;;28.80;56.00;;;24.21;77.69;95512.53;5012060;28;20003;-52
2023/07/19 06:04:22;;;;;;;;;;;28.90;55.70;;;24.36;75.85;95517.16;5012016;28;20356;-50
2023/07/19 06:06:49;;;;;;;;;;;29.10;55.50;;;24.46;75.81;95508.47;5010799;28;19913;-53
2023/07/19 06:09:17;;;;;;;;;;;29.30;55.30;;;24.61;74.96;95509.56;5014921;28;20007;-50
2023/07/19 06:11:44;;;;;;;;;;;29.40;55.10;;;24.86;73.80;95512.03;5013514;28;19909;-51
2023/07/19 06:14:11;;;;;;;;;;;29.60;54.80;;;24.98;73.54;95508.41;5014209;28;19932;-52
2023/07/19 06:16:39;;;;;;;;;;;29.70;54.60;;;25.04;71.68;95521.38;5020737;28;19915;-52
2023/07/19 06:19:05;;;;;;;;;;;29.90;54.30;;;25.14;71.42;95526.25;5024902;28;19999;-53
2023/07/19 06:21:31;;;;;;;;;;;30.00;53.90;;;25.20;69.97;95517.81;5016781;28;19920;-52
2023/07/19 06:23:58;;;;;;;;;;;30.20;53.60;;;25.17;69.88;95516.59;5026888;28;19979;-51
2023/07/19 06:26:24;;;;;;;;;;;30.40;53.30;;;25.49;69.29;95525.34;5017534;28;19917;-53
2023/07/19 06:28:50;;;;;;;;;;;30.60;53.20;;;25.50;68.89;95542.50;5015300;28;19943;-51
2023/07/19 06:31:15;;;;;;;;;;;30.60;52.90;;;25.28;68.69;95547.53;5028105;28;19944;-52
2023/07/19 06:33:41;;;;;;;;;;;30.50;52.50;;;25.28;68.70;95547.53;5016463;28;20363;-52
2023/07/19 06:36:07;;;;;;;;;;;30.50;52.40;;;25.27;69.38;95556.09;5013933;28;20363;-51
2023/07/19 06:38:36;;;;;;;;;;;30.40;52.30;;;25.05;69.41;95554.84;5015641;28;20367;-51
2023/07/19 06:41:03;;;;;;;;;;;30.40;52.20;;;24.90;69.52;95553.75;5014517;28;20010;-52
2023/07/19 06:43:29;;;;;;;;;;;30.20;51.90;;;24.95;69.94;95564.38;5015008;28;19920;-53
2023/07/19 06:45:55;;;;;;;;;;;30.20;51.90;;;24.96;70.09;95563.22;5015084;28;19913;-52
2023/07/19 06:48:21;;;;;;;;;;;30.10;51.90;;;25.01;70.13;95560.22;5015157;28;19909;-54
2023/07/19 06:50:47;;;;;;;;;;;30.00;51.90;;;24.99;69.24;95565.25;5023071;28;19909;-54
2023/07/19 06:53:13;;;;;;;;;;;30.10;52.40;;;25.11;69.67;95562.38;5014836;28;19909;-50
2023/07/19 06:55:39;;;;;;;;;;;30.20;51.70;;;25.37;68.42;95558.22;5023073;28;19920;-51
2023/07/19 06:58:05;;;;;;;;;;;30.40;51.60;;;25.72;66.92;95551.84;5015237;28;20386;-53
2023/07/19 07:00:31;;;;;;;;;;;30.70;51.40;;;26.07;66.39;95551.69;5008156;28;19910;-51
2023/07/19 07:02:56;;;;;;;;;;;31.00;51.40;;;26.27;64.40;95557.88;5014086;28;20379;-54
2023/07/19 07:05:22;;;;;;;;;;;31.30;51.10;;;26.16;63.57;95552.25;5012941;28;19943;-52
2023/07/19 07:07:48;;;;;;;;;;;31.40;50.80;;;26.43;63.43;95542.13;5023151;28;19909;-51
2023/07/19 07:10:13;;;;;;;;;;;31.50;50.50;;;26.61;61.73;95544.38;5016432;28;19909;-51
2023/07/19 07:12:42;;;;;;;;;;;31.80;50.20;;;26.84;59.89;95555.22;5021571;28;19912;-51
2023/07/19 07:15:08;;;;;;;;;;;32.10;49.80;;;26.75;59.05;95553.53;5027549;28;19915;-52
2023/07/19 07:17:34;;;;;;;;;;;32.20;49.50;;;26.72;59.36;95553.50;5013996;28;20237;-54
2023/07/19 07:20:00;;;;;;;;;;;32.30;49.30;;;26.62;59.14;95543.22;5014735;28;19913;-55
2023/07/19 07:22:25;;;;;;;;;;;32.20;49.00;;;26.59;57.22;95535.75;5014483;28;19913;-52
2023/07/19 07:24:51;;;;;;;;;;;32.20;48.60;;;26.73;57.72;95531.28;5015864;28;19913;-55
2023/07/19 07:27:17;;;;;;;;;;;32.40;48.30;;;26.98;56.42;95528.06;5034745;28;19912;-51
2023/07/19 07:29:43;;;;;;;;;;;32.60;48.10;;;27.08;55.83;95530.16;5030162;28;19909;-52
2023/07/19 07:32:12;;;;;;;;;;;32.70;47.60;;;27.25;55.41;95525.31;5027629;28;19968;-51
2023/07/19 07:34:38;;;;;;;;;;;32.90;47.30;;;27.33;54.25;95521.50;5034195;28;19954;-55
2023/07/19 07:37:05;;;;;;;;;;;33.10;47.20;;;27.34;54.33;95512.13;5026028;28;19915;-51
2023/07/19 07:39:31;;;;;;;;;;;33.20;46.90;;;27.43;53.09;95513.41;5029819;28;19909;-55
2023/07/19 07:41:57;;;;;;;;;;;33.50;46.50;;;27.73;52.31;95503.50;5026728;28;19979;-55
2023/07/19 07:44:23;;;;;;;;;;;33.80;46.20;;;27.80;52.62;95515.34;5029830;28;20369;-55
2023/07/19 07:46:50;;;;;;;;;;;34.00;45.70;;;27.89;51.78;95499.41;5034372;28;19920;-54
2023/07/19 07:49:16;;;;;;;;;;;34.10;45.40;;;28.09;51.33;95499.94;5031541;28;19908;-51
2023/07/19 07:51:42;;;;;;;;;;;34.30;45.00;;;28.27;49.65;95493.84;5033922;28;19909;-52
2023/07/19 07:54:08;;;;;;;;;;;34.40;44.80;;;28.66;48.85;95490.56;5027723;28;19971;-53
2023/07/19 07:56:34;;;;;;;;;;;34.60;44.60;;;28.69;48.67;95490.56;5033848;28;20375;-52
2023/07/19 07:58:59;;;;;;;;;;;34.80;44.10;;;28.65;48.98;95478.81;5033612;28;19962;-54
2023/07/19 08:01:25;;;;;;;;;;;34.90;43.80;;;28.77;48.32;95485.94;5021977;28;19912;-53
2023/07/19 08:03:52;;;;;;;;;;;35.10;43.70;;;28.85;48.37;95478.50;5033879;28;19954;-51
2023/07/19 08:06:19;;;;;;;;;;;35.30;43.30;;;29.12;47.30;95477.09;5023827;28;20326;-51
2023/07/19 08:08:45;;;;;;;;;;;35.40;42.90;;;29.17;46.38;95473.16;5019557;28;20383;-55
2023/07/19 08:11:11;;;;;;;;;;;35.50;42.40;;;29.44;45.70;95468.16;5027109;28;19951;-55
2023/07/19 08:13:36;;;;;;;;;;;35.70;42.30;;;29.28;46.18;95468.50;5021528;28;19941;-55
2023/07/19 08:16:06;;;;;;;;;;;35.80;41.90;;;29.29;46.20;95462.63;5017551;28;19912;-51
2023/07/19 08:18:33;;;;;;;;;;;35.90;41.70;;;29.63;45.42;95464.28;5021185;28;19962;-52
2023/07/19 08:20:58;;;;;;;;;;;36.00;41.40;;;29.66;44.51;95469.00;5032697;28;19928;-51
2023/07/19 08:23:24;;;;;;;;;;;36.10;41.00;;;29.93;43.47;95461.94;5031059;28;19909;-51
2023/07/19 08:25:57;;;;;;;;;;;36.30;41.00;;;30.17;44.67;95465.06;5029230;28;19920;-53
2023/07/19 08:28:27;;;;;;;;;;;36.40;40.70;;;30.09;43.11;95466.25;5025899;28;20023;-51
2023/07/19 08:30:53;;;;;;;;;;;36.60;40.10;;;30.02;42.71;95460.75;5015530;28;19955;-56
2023/07/19 08:33:24;;;;;;;;;;;36.70;39.80;;;30.08;43.59;95453.69;5033141;28;19913;-52
2023/07/19 08:35:50;;;;;;;;;;;36.80;39.70;;;30.36;42.91;95461.91;5027566;28;20283;-55
2023/07/19 08:38:17;;;;;;;;;;;37.00;39.40;;;30.54;42.81;95452.84;5025130;28;19995;-54
2023/07/19 08:40:57;;;;;;;;;;;37.20;39.00;;;30.75;42.09;95449.25;5033006;28;19923;-55
2023/07/19 08:43:26;;;;;;;;;;;37.40;38.60;;;30.80;41.44;95441.38;5025391;28;19951;-56
2023/07/19 08:45:53;;;;;;;;;;;37.50;38.20;;;30.79;41.49;95444.56;5022520;28;19913;-51
2023/07/19 08:48:20;;;;;;;;;;;37.50;38.10;;;30.69;41.02;95451.63;5014862;28;19939;-52
2023/07/19 08:50:56;;;;;;;;;;;37.50;38.00;;;30.79;40.81;95452.81;5031685;28;19931;-53
2023/07/19 08:53:25;;;;;;;;;;;37.60;37.70;;;30.94;40.44;95448.81;5029504;28;19913;-52
2023/07/19 08:55:52;;;;;;;;;;;37.80;37.40;;;31.22;40.72;95447.88;5022273;28;19909;-55
2023/07/19 08:58:19;;;;;;;;;;;37.90;37.10;;;31.00;40.72;95443.69;5033211;28;19909;-51
2023/07/19 09:00:49;;;;;;;;;;;37.70;37.80;;;31.10;39.77;95440.09;5024059;28;19913;-52
2023/07/19 09:03:18;;;;;;;;;;;37.70;37.10;;;31.32;40.39;95444.28;5029637;28;19908;-52
2023/07/19 09:05:46;;;;;;;;;;;37.90;36.80;;;31.15;39.87;95447.13;5026420;28;19951;-53
2023/07/19 09:08:14;;;;;;;;;;;38.10;36.60;;;30.95;40.60;95444.88;5030120;28;20454;-51
2023/07/19 09:10:44;;;;;;;;;;;37.90;36.70;;;30.79;40.69;95448.09;5032912;28;19951;-51
2023/07/19 09:13:10;;;;;;;;;;;37.70;36.70;;;30.81;41.03;95444.94;5025145;28;19908;-53
2023/07/19 09:15:36;;;;;;;;;;;37.60;36.80;;;30.54;41.55;95442.63;5032660;28;19970;-53
2023/07/19 09:18:08;;;;;;;;;;;37.50;36.60;;;30.33;42.51;95448.19;5030672;28;19915;-52
2023/07/19 09:20:37;;;;;;;;;;;37.30;36.70;;;30.36;41.56;95445.44;5031877;28;20441;-52
2023/07/19 09:23:07;;;;;;;;;;;37.10;36.70;;;30.56;41.40;95439.50;5032421;28;19913;-51
2023/07/19 09:25:57;;;;;;;;;;;37.30;36.70;;;30.71;41.22;95441.00;5028482;28;20373;-52
2023/07/19 09:28:24;;;;;;;;;;;37.30;36.60;;;30.93;40.38;95435.44;5032496;28;20413;-54
2023/07/19 09:30:59;;;;;;;;;;;37.60;36.60;;;30.74;41.66;95439.44;5015952;28;19913;-50
2023/07/19 09:33:28;;;;;;;;;;;37.60;36.20;;;30.75;40.89;95438.25;5013379;28;19995;-52
2023/07/19 09:35:57;;;;;;;;;;;37.70;35.90;;;30.66;40.63;95442.22;5024523;28;19909;-56
2023/07/19 09:38:25;;;;;;;;;;;37.80;36.00;;;30.50;41.05;95441.09;5021574;28;20074;-55
2023/07/19 09:40:54;;;;;;;;;;;37.60;35.80;;;30.34;42.16;95442.31;5031657;28;20390;-54
2023/07/19 09:43:21;;;;;;;;;;;37.70;35.80;;;30.92;41.42;95448.41;5026352;28;20050;-53
2023/07/19 09:45:50;;;;;;;;;;;37.70;35.40;;;30.96;40.75;95442.91;5024013;28;19913;-51
2023/07/19 09:48:17;;;;;;;;;;;37.50;35.50;;;31.26;40.05;95432.13;5018682;28;20348;-51
2023/07/19 09:50:46;;;;;;;;;;;37.50;35.40;;;31.80;39.88;95438.06;5031834;28;20003;-56
2023/07/19 09:53:13;;;;;;;;;;;37.80;35.30;;;32.32;39.00;95440.00;5037341;28;19916;-54
2023/07/19 09:55:40;;;;;;;;;;;38.10;35.00;;;32.86;38.30;95445.72;5011315;28;19912;-50
2023/07/19 09:58:12;;;;;;;;;;;38.60;35.00;;;32.74;36.26;95443.50;5027667;28;19917;-52
2023/07/19 10:00:39;;;;;;;;;;;38.90;34.80;;;32.94;36.90;95433.41;5026209;28;19909;-52
2023/07/19 10:03:08;;;;;;;;;;;39.20;34.40;;;32.98;36.00;95424.34;5029015;28;20009;-53
2023/07/19 10:05:37;;;;;;;;;;;39.50;34.00;;;33.46;36.16;95426.03;5026865;28;20036;-53
2023/07/19 10:08:05;;;;;;;;;;;39.90;33.80;;;33.52;35.06;95425.16;5029987;28;20054;-53
2023/07/19 10:10:42;;;;;;;;;;;40.30;33.10;;;33.65;35.86;95428.13;5029303;28;19909;-49
2023/07/19 10:13:09;;;;;;;;;;;40.50;32.70;;;33.58;35.49;95423.50;5014749;28;19908;-53
2023/07/19 10:15:36;;;;;;;;;;;40.70;32.50;;;33.54;35.26;95433.03;5009646;28;19909;-49
2023/07/19 10:18:11;;;;;;;;;;;40.70;32.40;;;33.83;35.15;95431.38;5008475;28;19916;-50
2023/07/19 10:20:37;;;;;;;;;;;41.00;32.00;;;33.72;35.53;95418.94;5021995;28;19913;-49
2023/07/19 10:23:06;;;;;;;;;;;41.20;31.70;;;33.45;34.73;95424.47;5018784;28;19962;-49
2023/07/19 10:25:45;;;;;;;;;;;41.10;31.50;;;33.04;35.72;95417.94;5025282;28;20394;-49
2023/07/19 10:28:24;;;;;;;;;;;41.00;31.60;;;33.14;36.20;95419.00;5030707;28;19916;-50
2023/07/19 10:30:58;;;;;;;;;;;40.80;31.50;;;33.06;36.61;95406.47;5013273;28;19920;-50
2023/07/19 10:33:32;;;;;;;;;;;40.70;31.50;;;33.22;35.74;95414.16;5023766;28;19909;-49
2023/07/19 10:36:16;;;;;;;;;;;40.70;31.60;;;33.21;35.45;95415.34;5023429;28;19917;-50
2023/07/19 10:38:41;;;;;;;;;;;40.60;31.50;;;32.48;36.36;95412.69;5027604;28;19953;-50
2023/07/19 10:41:09;;;;;;;;;;;40.20;31.30;;;32.51;36.48;95413.84;5030403;28;20587;-52
2023/07/19 10:43:37;;;;;;;;;;;39.90;31.40;;;32.57;36.88;95412.19;5026859;28;19909;-50
2023/07/19 10:46:04;;;;;;;;;;;39.90;31.20;;;32.85;36.17;95416.59;5029567;28;19913;-49
2023/07/19 10:48:36;;;;;;;;;;;40.00;31.20;;;33.27;34.67;95403.44;5013817;28;19924;-49
2023/07/19 10:51:04;;;;;;;;;;;40.10;31.10;;;33.46;35.18;95403.94;5030878;28;19962;-50
2023/07/19 10:53:40;;;;;;;;;;;40.30;31.40;;;33.81;35.07;95395.09;5029178;28;19917;-49
2023/07/19 10:56:06;;;;;;;;;;;40.60;31.00;;;33.97;33.71;95401.94;5034343;28;20383;-49
2023/07/19 10:58:32;;;;;;;;;;;40.80;30.80;;;34.04;33.50;95396.34;5034026;28;19908;-49
2023/07/19 11:00:57;;;;;;;;;;;40.90;30.70;;;33.81;33.99;95400.63;5027548;28;20732;-49
2023/07/19 11:03:26;;;;;;;;;;;40.90;30.10;;;34.34;33.16;95395.38;5033198;28;19909;-50
2023/07/19 11:05:53;;;;;;;;;;;41.10;30.00;;;34.17;32.58;95400.06;5025799;28;19940;-50
2023/07/19 11:08:24;;;;;;;;;;;41.30;29.80;;;34.26;32.28;95393.97;5019682;28;19999;-52
2023/07/19 11:10:52;;;;;;;;;;;41.50;30.10;;;34.07;32.53;95390.75;5015358;28;19916;-52
2023/07/19 11:13:21;;;;;;;;;;;41.60;29.50;;;34.53;32.02;95391.09;5017474;28;20264;-49